Airfield :
LOGIN :

Register | Disclaimer

   EN    FR    IT 

 










Legend :    VFR   Marginal VFR   IFR   Intensive IFR   Very Intensive IFR
Visi :
Ceiling :
>= 8 km
>= 3000ft
5 to 8 km
1000 to 3000 ft
1500m to 5 km
500 to 1000 ft
800 to 1500m
200 to 500 ft
< 800m
< 200 ft
Symbols :   Thunderstorms  Fog  Heavy snow  Heavy precipitations  Wind > 20 kt
SIGMETs :     Misc.  Thunderstorms  Icing  Turbulence  Mountain Waves  Volcanic Ashes






- Airport Elevation : 220 ft
- IATA code : CWL


EGFF - Cardiff Rhoose

CURRENT METAR :
  • 180420Z AUTO 08003KT 5000 BR NCD 01/01 Q1037

EXPIRED METARs :
  • 180350Z AUTO 07006KT 6000 NCD 02/02 Q1037
  • 180320Z AUTO 07006KT 6000 NCD 01/01 Q1037
  • 180250Z AUTO 08006KT 8000 NCD 02/02 Q1037
  • 180220Z AUTO 08006KT 7000 NCD 02/02 Q1037
  • 180150Z AUTO 08005KT 8000 NCD 01/01 Q1038

TAF TAF EGFF
Valid from the 18 at 00:00 until the 19 at 00:00 UTC


172305Z 1800/1824 08006KT CAVOK
TEMPO 1800/1810 8000
PROB30
TEMPO 1800/1808 0300 FG FZFG VV///
BECMG 1808/1811 BKN020
PROB30
TEMPO 1811/1824 BKN014
ATIS : +44 1446 729 319



MET'MAP, your aeronautical weather chart ! - Copyright ORBIFLY December 2007 - Disclaimer

ORBIFLY MET'MAP TEAM :

Programming & Development : Alexandra Zaïnal
Concept & original design : Baudouin d'Aumeries
Assistance for programming : Marc-Olivier Méhu
Technical & hardware support : Manuel Goepfert

Contact : metmap@orbifly.com




SOURCES & CREDITS :

   NOAA